Time;durP1;ratioP1;P1;durP2;ratioP2;P2;SDS_P1;SDS_P2;PMS_P1;PMS_P2;Temp;Humidity;BMP_temperature;BMP_pressure;BME280_temperature;BME280_humidity;BME280_pressure;Samples;Min_cycle;Max_cycle;Signal;HPM_P1;HPM_P2
2023/05/04 00:03:48;;;;;;;24.50;9.23;;;14.10;99.90;;;;;;6067995;23;20101;-94
2023/05/04 00:06:18;;;;;;;34.38;10.45;;;14.10;99.90;;;;;;6043996;23;20441;-92
2023/05/04 00:08:45;;;;;;;23.95;10.98;;;14.10;99.90;;;;;;6021178;23;20015;-94
2023/05/04 00:11:14;;;;;;;31.13;10.40;;;14.20;99.90;;;;;;6020601;23;20346;-92
2023/05/04 00:17:05;;;;;;;28.98;10.75;;;14.10;99.90;;;;;;6067088;23;20018;-93
2023/05/04 18:43:06;;;;;;;20.10;15.05;;;16.10;99.90;;;;;;6281780;22;19919;-95
2023/05/04 18:45:33;;;;;;;24.27;15.88;;;16.10;99.90;;;;;;6228289;22;20007;-94
2023/05/04 18:47:59;;;;;;;20.63;15.05;;;16.10;99.90;;;;;;6227431;22;20007;-92
2023/05/04 18:50:28;;;;;;;21.52;15.15;;;16.10;99.90;;;;;;6228794;22;20004;-94
2023/05/04 18:56:49;;;;;;;22.20;14.52;;;16.10;99.90;;;;;;6082692;23;20026;-94
2023/05/04 19:02:39;;;;;;;21.38;14.88;;;16.00;99.90;;;;;;5986595;24;20095;-93
2023/05/04 19:05:31;;;;;;;;;;;;;;;;;;;;;
2023/05/04 19:08:09;;;;;;;27.73;15.20;;;15.90;99.90;;;;;;6129656;22;20051;-93
2023/05/04 19:10:36;;;;;;;22.05;15.65;;;15.90;99.90;;;;;;6226690;22;20043;-94
2023/05/04 19:13:02;;;;;;;21.42;14.38;;;15.90;99.90;;;;;;6196497;23;20012;-93
2023/05/04 19:15:33;;;;;;;21.88;15.48;;;15.90;99.90;;;;;;6223272;23;20315;-94
2023/05/04 19:18:28;;;;;;;28.50;15.55;;;15.90;99.90;;;;;;6186834;23;20020;-93
2023/05/04 19:21:09;;;;;;;26.25;15.57;;;15.80;99.90;;;;;;6185831;23;20009;-93
2023/05/04 19:23:40;;;;;;;32.15;16.38;;;15.80;99.90;;;;;;6161482;23;20016;-93
2023/05/04 19:26:06;;;;;;;27.05;16.10;;;15.80;99.90;;;;;;6136374;23;20005;-94
2023/05/04 19:28:33;;;;;;;24.45;15.57;;;15.80;99.90;;;;;;6161062;23;20017;-94
2023/05/04 19:31:46;;;;;;;22.98;14.73;;;15.70;99.90;;;;;;6162969;23;20008;-94
2023/05/04 19:35:41;;;;;;;25.75;14.55;;;15.70;99.90;;;;;;6131000;23;20429;-94
2023/05/04 19:37:55;;;;;;;30.65;14.95;;;15.70;99.90;;;;;;6073418;23;20049;-92
2023/05/04 19:47:27;;;;;;;29.13;14.43;;;15.60;99.90;;;;;;6071572;23;20449;-93
2023/05/04 19:50:34;;;;;;;29.10;15.82;;;15.50;99.90;;;;;;6071709;23;20097;-93
2023/05/04 19:53:30;;;;;;;30.90;14.32;;;15.50;99.90;;;;;;6034374;23;20031;-92
2023/05/04 20:01:20;;;;;;;;;;;;;;;;;;;;;
2023/05/04 20:07:21;;;;;;;34.35;15.27;;;15.40;99.90;;;;;;5959160;24;20033;-93
2023/05/04 20:09:48;;;;;;;28.50;17.13;;;15.40;99.90;;;;;;5957047;24;20013;-93
2023/05/04 20:12:15;;;;;;;35.92;17.50;;;15.40;99.90;;;;;;5957835;24;20017;-92
2023/05/04 20:14:47;;;;;;;34.60;16.90;;;15.30;99.90;;;;;;5937216;24;20023;-93
2023/05/04 20:17:17;;;;;;;31.00;15.80;;;15.30;99.90;;;;;;5933424;24;20016;-93
2023/05/04 20:19:47;;;;;;;39.72;17.75;;;15.30;99.90;;;;;;5955846;24;20024;-93
2023/05/04 20:22:15;;;;;;;36.08;16.67;;;15.30;99.90;;;;;;5967606;23;20386;-94
2023/05/04 20:24:42;;;;;;;34.80;17.75;;;15.30;99.90;;;;;;6012643;23;20095;-94
2023/05/04 20:27:28;;;;;;;34.60;17.05;;;15.30;99.90;;;;;;5991083;23;20063;-93
2023/05/04 20:30:10;;;;;;;31.85;17.52;;;15.30;99.90;;;;;;5993791;23;20008;-93
2023/05/04 20:32:40;;;;;;;40.25;18.63;;;15.30;99.90;;;;;;5992034;23;20007;-93
2023/05/04 20:35:10;;;;;;;33.55;19.15;;;15.30;99.90;;;;;;5996810;23;20081;-92
2023/05/04 20:41:08;;;;;;;38.67;17.77;;;15.30;99.90;;;;;;6016681;23;20019;-93
2023/05/04 20:43:35;;;;;;;29.98;18.15;;;15.30;99.90;;;;;;6063296;23;20077;-93
2023/05/04 20:46:02;;;;;;;30.58;17.75;;;15.20;99.90;;;;;;6126303;23;20089;-92
2023/05/04 20:48:28;;;;;;;38.33;18.50;;;15.20;99.90;;;;;;6125598;23;20010;-92
2023/05/04 20:50:55;;;;;;;32.70;17.60;;;15.20;99.90;;;;;;6125600;23;20034;-93
2023/05/04 20:53:21;;;;;;;35.95;17.75;;;15.20;99.90;;;;;;6126036;23;20002;-92
2023/05/04 20:55:48;;;;;;;37.17;18.13;;;15.20;99.90;;;;;;6125644;23;20014;-93
2023/05/04 20:58:14;;;;;;;42.47;18.63;;;15.20;99.90;;;;;;6101177;23;20240;-92
2023/05/04 21:00:40;;;;;;;34.55;18.38;;;15.20;99.90;;;;;;6125796;23;20084;-93
2023/05/04 21:03:07;;;;;;;37.45;19.23;;;15.20;99.90;;;;;;6125923;23;20096;-93
2023/05/04 21:05:38;;;;;;;35.88;20.08;;;15.20;99.90;;;;;;6126692;23;20507;-94
2023/05/04 21:08:07;;;;;;;37.83;19.52;;;15.20;99.90;;;;;;6101816;23;20014;-93
2023/05/04 21:10:33;;;;;;;36.30;18.70;;;15.20;99.90;;;;;;6125772;23;20336;-93
2023/05/04 21:13:02;;;;;;;43.95;20.23;;;15.20;99.90;;;;;;6127388;23;20064;-93
2023/05/04 21:15:31;;;;;;;40.47;20.52;;;15.10;99.90;;;;;;6128033;23;20030;-93
2023/05/04 21:18:08;;;;;;;38.80;19.52;;;15.20;99.90;;;;;;6175107;23;20058;-93
2023/05/04 21:20:41;;;;;;;41.08;17.75;;;15.10;99.90;;;;;;6197484;23;20015;-92
2023/05/04 21:23:10;;;;;;;42.72;18.52;;;15.10;99.90;;;;;;6200142;23;20008;-92
2023/05/04 21:25:41;;;;;;;37.60;17.50;;;15.10;99.90;;;;;;6199533;23;20078;-93
2023/05/04 21:41:43;;;;;;;;;;;;;;;;;;;;;
2023/05/04 21:49:38;;;;;;;;;;;;;;;;;;;;;
2023/05/04 21:56:21;;;;;;;33.60;19.58;;;15.00;99.90;;;;;;5886868;24;20021;-93
2023/05/04 21:59:34;;;;;;;44.50;20.67;;;14.90;99.90;;;;;;5884831;24;20042;-93
2023/05/04 22:16:27;;;;;;;;;;;;;;;;;;;;;
2023/05/04 23:43:05;;;;;;;45.15;17.60;;;14.20;99.90;;;;;;6250973;22;20024;-93
